createdAt,value
2022-12-23T00:01:38.005Z,60.83
2022-12-23T00:04:05.965Z,61.56
2022-12-23T00:06:33.931Z,61.28
2022-12-23T00:09:01.549Z,60.36
2022-12-23T00:11:29.543Z,60.88
2022-12-23T00:14:20.886Z,60.82
2022-12-23T00:16:50.719Z,57.70
2022-12-23T00:19:19.391Z,57.11
2022-12-23T00:21:48.655Z,59.00
2022-12-23T00:24:16.558Z,60.76
2022-12-23T00:26:44.277Z,65.02
2022-12-23T00:29:11.953Z,66.87
2022-12-23T00:31:39.633Z,64.24
2022-12-23T00:34:07.407Z,64.01
2022-12-23T00:36:35.093Z,63.44
2022-12-23T00:39:21.392Z,61.03
2022-12-23T00:42:07.695Z,58.42
2022-12-23T00:44:35.397Z,57.25
2022-12-23T00:47:03.064Z,59.03
2022-12-23T00:49:42.862Z,61.42
2022-12-23T00:52:13.843Z,67.30
2022-12-23T00:54:41.601Z,68.52
2022-12-23T00:57:09.480Z,65.03
2022-12-23T00:59:37.485Z,63.52
2022-12-23T01:02:24.213Z,62.86
2022-12-23T01:05:10.623Z,62.32
2022-12-23T01:07:38.566Z,61.96
2022-12-23T01:10:06.728Z,62.11
2022-12-23T01:12:34.430Z,62.60
2022-12-23T01:15:02.091Z,63.50
2022-12-23T01:17:30.017Z,63.28
2022-12-23T01:19:57.697Z,62.89
2022-12-23T01:22:25.348Z,63.90
2022-12-23T01:24:52.924Z,65.00
2022-12-23T01:27:20.506Z,64.52
2022-12-23T01:29:48.469Z,65.50
2022-12-23T01:32:16.204Z,66.49
2022-12-23T01:34:44.018Z,65.50
2022-12-23T01:37:11.797Z,64.74
2022-12-23T01:39:39.501Z,63.56
2022-12-23T01:42:32.760Z,61.94
2022-12-23T01:45:01.606Z,61.49
2022-12-23T01:47:34.836Z,61.50
2022-12-23T01:50:15.597Z,61.95
2022-12-23T01:53:09.787Z,62.63
2022-12-23T01:55:52.591Z,63.69
2022-12-23T01:58:23.001Z,60.92
2022-12-23T02:01:09.797Z,56.93
2022-12-23T02:03:44.314Z,57.09
2022-12-23T02:06:53.483Z,59.65
2022-12-23T02:09:29.564Z,61.59
2022-12-23T02:12:29.415Z,66.09
2022-12-23T02:15:21.761Z,67.30
2022-12-23T02:17:58.270Z,67.57
2022-12-23T02:20:44.522Z,63.59
2022-12-23T02:23:43.282Z,58.72
2022-12-23T02:26:32.256Z,56.47
2022-12-23T02:29:15.097Z,59.16
2022-12-23T02:48:10.395Z,57.74
2022-12-23T02:50:41.532Z,58.52
2022-12-23T02:53:43.482Z,60.79
2022-12-23T02:56:14.518Z,67.61
2022-12-23T02:58:50.258Z,65.16
2022-12-23T03:01:19.679Z,59.33
2022-12-23T03:03:49.488Z,56.61
2022-12-23T03:06:23.083Z,58.42
2022-12-23T03:08:54.036Z,60.46
2022-12-23T03:11:22.409Z,64.28
2022-12-23T03:14:33.036Z,67.43
2022-12-23T03:17:17.803Z,63.46
2022-12-23T03:20:18.979Z,60.24
2022-12-23T03:22:46.600Z,56.90
2022-12-23T03:25:26.815Z,58.32
2022-12-23T03:28:09.464Z,60.27
2022-12-23T03:30:39.424Z,62.02
2022-12-23T03:33:19.518Z,66.54
2022-12-23T03:35:52.764Z,66.21
2022-12-23T03:38:22.791Z,64.87
2022-12-23T03:41:03.194Z,64.27
2022-12-23T03:43:37.119Z,64.28
2022-12-23T03:46:15.828Z,64.53
2022-12-23T03:48:54.360Z,64.94
2022-12-23T03:51:36.445Z,65.28
2022-12-23T03:54:10.249Z,65.73
2022-12-23T03:56:53.988Z,65.46
2022-12-23T03:59:26.865Z,66.24
2022-12-23T04:02:00.169Z,66.35
2022-12-23T04:04:43.115Z,67.74
2022-12-23T04:07:15.653Z,66.09
2022-12-23T04:09:44.209Z,65.63
2022-12-23T04:12:14.286Z,65.48
2022-12-23T04:14:48.971Z,65.62
2022-12-23T04:17:17.792Z,65.52
2022-12-23T04:19:46.597Z,65.85
2022-12-23T04:22:16.165Z,66.56
2022-12-23T04:24:44.029Z,66.89
2022-12-23T04:27:16.515Z,67.21
2022-12-23T04:29:44.502Z,70.24
2022-12-23T04:32:12.229Z,67.00
2022-12-23T04:34:39.890Z,61.16
2022-12-23T04:37:07.700Z,56.63
2022-12-23T04:39:35.353Z,56.44
2022-12-23T04:42:03.713Z,58.54
2022-12-23T04:44:31.466Z,60.61
2022-12-23T04:46:59.262Z,62.26
2022-12-23T04:49:27.194Z,67.15
2022-12-23T04:51:55.086Z,65.49
2022-12-23T04:54:22.861Z,59.53
2022-12-23T04:56:50.778Z,56.41
2022-12-23T04:59:18.511Z,57.87
2022-12-23T05:01:46.575Z,59.94
2022-12-23T05:04:14.475Z,62.13
2022-12-23T05:06:42.285Z,65.01
2022-12-23T05:09:10.232Z,66.47
2022-12-23T05:11:42.154Z,66.76
2022-12-23T05:14:11.656Z,67.22
2022-12-23T05:16:39.823Z,67.40
2022-12-23T05:19:07.984Z,68.43
2022-12-23T05:21:35.802Z,67.32
2022-12-23T05:24:03.664Z,67.95
2022-12-23T05:26:31.427Z,66.87
2022-12-23T05:28:59.237Z,65.66
2022-12-23T05:31:26.968Z,65.30
2022-12-23T05:33:54.874Z,65.10
2022-12-23T05:36:22.611Z,65.80
2022-12-23T05:38:50.290Z,64.42
2022-12-23T05:41:17.998Z,63.25
2022-12-23T05:43:45.836Z,60.72
2022-12-23T05:46:13.619Z,58.28
2022-12-23T05:48:41.433Z,58.60
2022-12-23T05:51:09.095Z,60.33
2022-12-23T05:53:36.742Z,63.39
2022-12-23T05:56:06.108Z,65.42
2022-12-23T05:58:34.118Z,65.28
2022-12-23T06:06:23.098Z,66.97
2022-12-23T06:08:55.782Z,67.49
2022-12-23T06:11:27.687Z,67.27
2022-12-23T06:13:55.589Z,67.22
2022-12-23T06:16:23.368Z,67.01
2022-12-23T06:18:55.257Z,66.50
2022-12-23T06:21:23.260Z,65.80
2022-12-23T06:23:51.665Z,65.50
2022-12-23T06:26:19.470Z,65.29
2022-12-23T06:28:47.319Z,65.63
2022-12-23T06:31:15.382Z,66.01
2022-12-23T06:33:43.220Z,66.97
2022-12-23T06:36:11.043Z,67.96
2022-12-23T06:38:38.709Z,68.18
2022-12-23T06:41:07.690Z,68.62
2022-12-23T06:43:35.458Z,69.14
2022-12-23T06:46:03.350Z,69.30
2022-12-23T06:48:31.161Z,69.06
2022-12-23T06:50:58.820Z,69.72
2022-12-23T06:53:26.587Z,70.47
2022-12-23T06:56:02.114Z,70.48
2022-12-23T06:58:30.145Z,70.19
2022-12-23T07:00:58.002Z,70.38
2022-12-23T07:03:25.897Z,70.83
2022-12-23T07:05:53.750Z,70.72
2022-12-23T07:08:21.745Z,70.29
2022-12-23T07:10:49.446Z,71.15
2022-12-23T07:13:17.219Z,71.16
2022-12-23T07:15:44.957Z,70.87
2022-12-23T07:18:12.819Z,71.54
2022-12-23T07:20:40.807Z,71.13
2022-12-23T07:23:08.634Z,71.51
2022-12-23T07:25:36.401Z,72.10
2022-12-23T07:28:04.303Z,73.06
2022-12-23T07:30:32.017Z,74.47
2022-12-23T07:32:59.878Z,72.81
2022-12-23T07:35:28.216Z,72.38
2022-12-23T07:37:56.501Z,72.27
2022-12-23T07:40:24.967Z,72.30
2022-12-23T07:42:58.116Z,72.71
2022-12-23T07:45:27.664Z,72.64
2022-12-23T07:47:59.729Z,72.54
2022-12-23T07:50:27.620Z,72.51
2022-12-23T07:52:56.306Z,72.63
2022-12-23T07:55:24.042Z,72.91
2022-12-23T07:57:53.191Z,72.91
2022-12-23T08:00:21.304Z,72.93
2022-12-23T08:02:49.332Z,73.43
2022-12-23T08:05:17.418Z,73.68
2022-12-23T08:07:45.412Z,74.83
2022-12-23T08:10:13.042Z,75.35
2022-12-23T08:12:40.731Z,75.02
2022-12-23T08:15:09.305Z,74.95
2022-12-23T08:17:36.973Z,74.85
2022-12-23T08:35:54.676Z,75.53
2022-12-23T08:38:22.495Z,76.12
2022-12-23T08:40:50.134Z,75.67
2022-12-23T08:43:17.876Z,75.73
2022-12-23T08:45:45.779Z,75.71
2022-12-23T08:48:14.173Z,75.69
2022-12-23T08:50:44.482Z,76.07
2022-12-23T08:53:13.260Z,76.18
2022-12-23T08:55:45.934Z,76.30
2022-12-23T08:58:16.020Z,77.35
2022-12-23T09:00:43.688Z,77.59
2022-12-23T09:03:11.459Z,76.73
2022-12-23T09:05:41.471Z,76.23
2022-12-23T09:08:09.751Z,75.62
2022-12-23T09:10:42.729Z,74.92
2022-12-23T09:13:13.882Z,74.24
2022-12-23T09:15:45.750Z,73.90
2022-12-23T09:18:13.467Z,73.61
2022-12-23T09:20:41.191Z,73.58
2022-12-23T09:23:08.938Z,73.86
2022-12-23T09:25:37.162Z,74.79
2022-12-23T09:28:06.885Z,74.04
2022-12-23T09:30:34.656Z,73.64
2022-12-23T09:33:02.321Z,73.86
2022-12-23T09:35:30.089Z,74.69
2022-12-23T09:37:57.872Z,73.68
2022-12-23T09:40:30.726Z,72.42
2022-12-23T09:43:20.337Z,71.65
2022-12-23T09:46:19.333Z,72.54
2022-12-23T10:03:54.396Z,67.32
2022-12-23T10:06:27.253Z,67.65
2022-12-23T10:09:02.570Z,67.27
2022-12-23T10:11:37.187Z,67.08
2022-12-23T10:14:16.411Z,67.06
2022-12-23T10:16:50.571Z,66.79
2022-12-23T10:19:25.086Z,66.83
2022-12-23T10:22:02.232Z,66.85
2022-12-23T10:24:41.906Z,66.37
2022-12-23T10:27:22.574Z,66.67
2022-12-23T10:29:50.258Z,66.68
2022-12-23T10:33:03.837Z,66.68
2022-12-23T10:35:41.631Z,66.65
2022-12-23T10:38:23.455Z,66.26
2022-12-23T10:41:23.364Z,66.02
2022-12-23T10:44:03.209Z,66.20
2022-12-23T10:46:57.199Z,65.84
2022-12-23T10:49:43.099Z,65.81
2022-12-23T10:52:27.751Z,67.57
2022-12-23T10:54:55.475Z,64.78
2022-12-23T10:57:24.732Z,63.73
2022-12-23T10:59:52.518Z,62.98
2022-12-23T11:02:32.650Z,62.57
2022-12-23T11:05:00.425Z,62.55
2022-12-23T11:07:46.045Z,62.74
2022-12-23T11:10:23.535Z,62.99
2022-12-23T11:23:27.334Z,63.99
2022-12-23T11:26:02.448Z,63.92
2022-12-23T11:28:32.845Z,64.00
2022-12-23T11:31:11.595Z,64.31
2022-12-23T11:33:46.336Z,64.39
2022-12-23T11:36:13.982Z,64.63
2022-12-23T11:38:49.600Z,64.81
2022-12-23T11:41:29.568Z,64.97
2022-12-23T11:44:03.633Z,65.62
2022-12-23T11:46:34.070Z,65.50
2022-12-23T11:49:25.868Z,65.86
2022-12-23T11:52:11.912Z,66.26
2022-12-23T11:54:40.121Z,67.60
2022-12-23T11:57:19.129Z,65.74
2022-12-23T11:59:49.966Z,64.42
2022-12-23T12:02:26.169Z,63.36
2022-12-23T12:05:05.198Z,64.14
2022-12-23T12:07:33.677Z,64.36
2022-12-23T12:10:02.585Z,63.72
2022-12-23T12:12:30.511Z,64.42
2022-12-23T12:15:00.164Z,64.72
2022-12-23T12:17:37.589Z,63.84
2022-12-23T12:20:29.337Z,63.07
2022-12-23T12:23:09.185Z,62.91
2022-12-23T12:25:46.175Z,63.93
2022-12-23T12:28:21.109Z,63.58
2022-12-23T12:31:05.844Z,63.66
2022-12-23T12:33:43.913Z,64.13
2022-12-23T12:36:14.282Z,63.77
2022-12-23T12:38:45.781Z,63.05
2022-12-23T12:41:22.709Z,62.83
2022-12-23T12:44:33.027Z,63.47
2022-12-23T12:47:36.074Z,63.03
2022-12-23T12:50:12.122Z,62.75
2022-12-23T12:52:41.880Z,62.27
2022-12-23T12:55:20.037Z,62.31
2022-12-23T12:57:47.815Z,61.92
2022-12-23T13:00:21.761Z,61.82
2022-12-23T13:03:28.083Z,61.45
2022-12-23T13:06:14.981Z,62.29
2022-12-23T13:09:00.049Z,63.14
2022-12-23T13:11:38.063Z,63.06
2022-12-23T13:14:34.006Z,63.63
2022-12-23T13:17:24.464Z,64.23
2022-12-23T13:19:59.409Z,64.92
2022-12-23T13:22:37.783Z,65.80
2022-12-23T13:25:17.761Z,65.97
2022-12-23T13:27:58.503Z,65.84
2022-12-23T13:30:31.514Z,66.55
2022-12-23T13:33:23.441Z,67.11
2022-12-23T13:36:05.316Z,67.40
2022-12-23T13:39:00.520Z,67.70
2022-12-23T13:41:43.849Z,67.60
2022-12-23T13:44:18.298Z,68.01
2022-12-23T13:47:10.846Z,67.88
2022-12-23T13:49:41.431Z,68.34
2022-12-23T13:52:14.264Z,68.35
2022-12-23T13:55:06.879Z,68.28
2022-12-23T13:57:37.306Z,68.62
2022-12-23T14:00:17.317Z,68.80
2022-12-23T14:03:05.559Z,69.07
2022-12-23T14:05:38.795Z,69.02
2022-12-23T14:08:18.337Z,69.09
2022-12-23T14:11:24.174Z,69.24
2022-12-23T14:13:51.908Z,69.43
2022-12-23T14:16:44.734Z,69.66
2022-12-23T14:19:18.492Z,69.52
2022-12-23T14:21:48.963Z,69.97
2022-12-23T14:25:00.117Z,70.81
2022-12-23T14:27:49.016Z,71.43
2022-12-23T14:30:36.311Z,71.27
2022-12-23T14:33:13.954Z,71.03
2022-12-23T14:35:42.882Z,70.46
2022-12-23T14:38:13.894Z,70.74
2022-12-23T14:40:41.466Z,71.01
2022-12-23T14:43:33.239Z,70.93
2022-12-23T14:46:06.977Z,70.59
2022-12-23T14:48:34.663Z,70.93
2022-12-23T14:51:03.527Z,71.32
2022-12-23T14:53:33.993Z,71.59
2022-12-23T14:56:19.887Z,72.25
2022-12-23T14:58:58.626Z,72.01
2022-12-23T15:02:00.678Z,72.45
2022-12-23T15:04:35.338Z,72.59
2022-12-23T15:07:07.184Z,72.85
2022-12-23T15:09:40.162Z,73.42
2022-12-23T15:12:19.794Z,73.84
2022-12-23T15:14:52.865Z,74.70
2022-12-23T15:17:31.041Z,75.62
2022-12-23T15:20:10.849Z,75.40
2022-12-23T15:22:42.317Z,75.78
2022-12-23T15:25:29.009Z,75.62
2022-12-23T15:28:01.928Z,76.75
2022-12-23T15:30:35.749Z,77.15
2022-12-23T15:33:27.754Z,77.01
2022-12-23T15:35:55.507Z,76.75
2022-12-23T15:38:29.712Z,76.90
2022-12-23T15:41:05.941Z,76.55
2022-12-23T15:43:41.879Z,76.32
2022-12-23T15:46:28.542Z,76.44
2022-12-23T15:48:58.318Z,76.77
2022-12-23T15:52:06.274Z,76.74
2022-12-23T15:54:36.895Z,77.34
2022-12-23T15:57:05.060Z,77.45
2022-12-23T15:59:38.804Z,78.06
2022-12-23T16:05:26.628Z,78.75
2022-12-23T16:08:11.754Z,79.10
2022-12-23T16:10:41.288Z,79.77
2022-12-23T16:13:20.087Z,80.01
2022-12-23T16:15:48.029Z,80.43
2022-12-23T16:18:25.659Z,80.59
2022-12-23T16:20:56.891Z,80.87
2022-12-23T16:23:33.582Z,81.00
2022-12-23T16:26:02.375Z,81.31
2022-12-23T16:28:38.990Z,81.29
2022-12-23T16:31:08.159Z,81.66
2022-12-23T16:33:43.561Z,81.85
2022-12-23T16:36:21.271Z,81.89
2022-12-23T16:38:51.412Z,82.07
2022-12-23T16:41:20.064Z,82.55
2022-12-23T16:43:52.371Z,82.53
2022-12-23T16:46:23.483Z,82.70
2022-12-23T16:49:04.616Z,82.89
2022-12-23T16:51:34.292Z,82.89
2022-12-23T16:54:02.332Z,82.93
2022-12-23T16:56:36.468Z,83.08
2022-12-23T16:59:04.831Z,83.20
2022-12-23T17:01:39.409Z,83.30
2022-12-23T17:04:07.945Z,83.46
2022-12-23T17:06:37.273Z,83.48
2022-12-23T17:09:06.524Z,83.51
2022-12-23T17:11:43.338Z,83.65
2022-12-23T17:14:22.853Z,83.75
2022-12-23T17:16:51.820Z,83.75
2022-12-23T17:19:27.892Z,83.78
2022-12-23T17:22:01.824Z,83.88
2022-12-23T17:24:29.990Z,83.97
2022-12-23T17:26:57.902Z,83.91
2022-12-23T17:29:26.049Z,83.82
2022-12-23T17:31:54.593Z,83.73
2022-12-23T17:34:24.360Z,83.83
2022-12-23T17:36:52.891Z,83.86
2022-12-23T17:39:22.295Z,83.87
2022-12-23T17:41:50.270Z,83.86
2022-12-23T17:44:18.857Z,83.84
2022-12-23T17:46:46.948Z,83.84
2022-12-23T17:49:14.939Z,83.78
2022-12-23T17:51:43.256Z,83.74
2022-12-23T17:54:21.701Z,83.70
2022-12-23T17:56:50.067Z,83.75
2022-12-23T17:59:17.973Z,83.64
2022-12-23T18:01:45.952Z,83.60
2022-12-23T18:04:13.790Z,83.60
2022-12-23T18:06:41.818Z,83.70
2022-12-23T18:09:09.612Z,83.76
2022-12-23T18:11:44.996Z,83.74
2022-12-23T18:14:16.614Z,83.49
2022-12-23T18:16:44.528Z,83.55
2022-12-23T18:19:17.782Z,83.53
2022-12-23T18:21:45.907Z,83.48
2022-12-23T18:24:13.606Z,83.49
2022-12-23T18:26:41.889Z,83.57
2022-12-23T18:29:09.523Z,83.65
2022-12-23T18:31:45.328Z,83.71
2022-12-23T18:34:18.136Z,83.74
2022-12-23T18:36:48.274Z,83.77
2022-12-23T18:39:16.359Z,83.90
2022-12-23T18:41:44.095Z,83.96
2022-12-23T18:44:19.345Z,83.92
2022-12-23T18:46:48.268Z,83.95
2022-12-23T18:49:16.222Z,84.11
2022-12-23T18:51:44.038Z,84.16
2022-12-23T18:54:16.530Z,84.13
2022-12-23T18:56:44.429Z,84.06
2022-12-23T18:59:17.030Z,84.05
2022-12-23T19:05:07.276Z,84.00
2022-12-23T19:07:34.952Z,84.01
2022-12-23T19:10:05.821Z,84.00
2022-12-23T19:12:33.441Z,84.08
2022-12-23T19:15:01.090Z,84.04
2022-12-23T19:17:28.770Z,83.94
2022-12-23T19:19:56.425Z,83.88
2022-12-23T19:22:24.896Z,83.84
2022-12-23T19:25:05.388Z,83.82
2022-12-23T19:27:34.526Z,83.79
2022-12-23T19:30:03.848Z,83.73
2022-12-23T19:32:31.539Z,83.73
2022-12-23T19:34:59.126Z,83.71
2022-12-23T19:37:26.745Z,83.68
2022-12-23T19:39:54.360Z,83.67
2022-12-23T19:42:21.937Z,83.66
2022-12-23T19:44:49.622Z,83.60
2022-12-23T19:47:17.510Z,83.54
2022-12-23T19:49:45.138Z,83.53
2022-12-23T19:52:13.085Z,83.56
2022-12-23T19:54:40.726Z,83.53
2022-12-23T19:57:08.368Z,83.59
2022-12-23T19:59:36.017Z,83.65
2022-12-23T20:05:20.405Z,83.81
2022-12-23T20:07:48.005Z,84.40
2022-12-23T20:10:15.695Z,84.05
2022-12-23T20:12:43.385Z,83.63
2022-12-23T20:15:11.179Z,83.44
2022-12-23T20:17:38.810Z,83.71
2022-12-23T20:20:07.558Z,83.82
2022-12-23T20:22:35.195Z,83.42
2022-12-23T20:25:02.850Z,82.71
2022-12-23T20:27:30.582Z,82.22
2022-12-23T20:29:58.226Z,81.31
2022-12-23T20:32:25.946Z,80.66
2022-12-23T20:34:53.796Z,80.28
2022-12-23T20:37:21.447Z,79.73
2022-12-23T20:39:49.155Z,79.09
2022-12-23T20:42:16.792Z,78.62
2022-12-23T20:44:44.415Z,77.96
2022-12-23T20:47:12.073Z,77.54
2022-12-23T20:49:39.896Z,76.99
2022-12-23T20:52:07.496Z,76.67
2022-12-23T20:54:35.174Z,76.57
2022-12-23T20:57:02.928Z,76.34
2022-12-23T20:59:30.652Z,76.11
2022-12-23T21:01:59.320Z,75.87
2022-12-23T21:04:27.292Z,75.63
2022-12-23T21:06:54.966Z,75.47
2022-12-23T21:09:22.608Z,75.48
2022-12-23T21:11:50.279Z,75.32
2022-12-23T21:14:18.115Z,75.14
2022-12-23T21:16:45.886Z,74.89
2022-12-23T21:19:17.375Z,74.63
2022-12-23T21:21:45.531Z,74.43
2022-12-23T21:24:14.080Z,74.26
2022-12-23T21:26:42.030Z,74.28
2022-12-23T21:29:10.524Z,74.20
2022-12-23T21:31:40.929Z,74.16
2022-12-23T21:34:09.099Z,74.31
2022-12-23T21:36:38.829Z,74.28
2022-12-23T21:39:08.472Z,74.18
2022-12-23T21:41:39.009Z,73.96
2022-12-23T21:44:06.899Z,73.75
2022-12-23T21:46:35.281Z,73.50
2022-12-23T21:49:03.235Z,73.18
2022-12-23T21:51:39.649Z,73.09
2022-12-23T21:54:09.817Z,72.81
2022-12-23T21:56:38.274Z,72.76
2022-12-23T21:59:12.895Z,73.04
2022-12-23T22:01:42.307Z,73.14
2022-12-23T22:04:10.322Z,73.54
2022-12-23T22:06:40.757Z,74.11
2022-12-23T22:09:08.776Z,74.20
2022-12-23T22:11:37.033Z,74.86
2022-12-23T22:14:07.562Z,75.13
2022-12-23T22:16:35.915Z,75.31
2022-12-23T22:19:05.644Z,75.86
2022-12-23T22:21:33.769Z,75.74
2022-12-23T22:24:02.067Z,75.56
2022-12-23T22:26:32.270Z,76.06
2022-12-23T22:29:02.479Z,76.55
2022-12-23T22:31:49.520Z,76.77
2022-12-23T22:34:20.304Z,77.16
2022-12-23T22:36:49.132Z,77.71
2022-12-23T22:39:21.099Z,77.96
2022-12-23T22:41:50.922Z,78.60
2022-12-23T22:44:19.754Z,80.09
2022-12-23T22:46:48.393Z,79.10
2022-12-23T22:49:16.785Z,79.03
2022-12-23T22:51:44.851Z,78.46
2022-12-23T22:54:12.654Z,76.22
2022-12-23T22:56:40.250Z,74.87
2022-12-23T22:59:12.320Z,75.81
2022-12-23T23:01:39.971Z,71.26
2022-12-23T23:04:07.991Z,67.29
2022-12-23T23:06:38.484Z,65.47
2022-12-23T23:09:08.719Z,64.70
2022-12-23T23:11:36.421Z,64.46
2022-12-23T23:14:04.652Z,64.59
2022-12-23T23:16:33.476Z,63.97
2022-12-23T23:19:01.994Z,63.58
2022-12-23T23:21:29.711Z,63.82
2022-12-23T23:23:57.402Z,64.54
2022-12-23T23:26:27.328Z,64.66
2022-12-23T23:28:56.263Z,63.83
2022-12-23T23:31:42.334Z,63.67
2022-12-23T23:34:11.368Z,63.92
2022-12-23T23:36:39.380Z,64.06
2022-12-23T23:39:07.548Z,64.64
2022-12-23T23:41:35.773Z,64.57
2022-12-23T23:44:03.721Z,65.15
2022-12-23T23:46:31.788Z,65.70
2022-12-23T23:48:59.982Z,67.19
2022-12-23T23:51:27.658Z,66.83
2022-12-23T23:53:55.294Z,66.27
2022-12-23T23:56:25.744Z,66.32
2022-12-23T23:58:54.838Z,66.87
